Tioga Center, NY (13845)

3:13 PM EST on December 08, 2016 (GMT -0500)
Tioga Central | | Change Station

Elev 817 ft 42.06 °N, 76.35 °W | Updated 5 seconds ago

Overcast
Overcast
33.8 °F
Feels Like 31 °F
N
3.1
Wind Variable Wind from WSW
Gusts 11.0 mph

Today
High -- | Low -- °F
--% Chance of Precip.
Yesterday
High -- | Low -- °F
Precip. -- in
Pressure 29.89 in
Visibility 9.0 miles
Clouds Scattered Clouds 4900 ft
Overcast 6500 ft
Windchill 31 °F
Dew Point 18 °F
Humidity 53%
Rainfall 0.00 in
Snow Depth Not available.
7:21 AM 4:33 PM
Waxing Gibbous, 66% visible
METAR KBGM 081953Z 28010KT 9SM SCT049 OVC065 M01/M07 A2984 RMK AO2 SNB17E48 SLP120 P0000 T10111067
Pressure 29.89 in
Visibility 9.0 miles
Clouds Scattered Clouds 4900 ft
Overcast 6500 ft
Windchill 31 °F
Dew Point 18 °F
Humidity 53%
Rainfall 0.00 in
Snow Depth Not available.
7:21 AM 4:33 PM
Waxing Gibbous, 66% visible
METAR KBGM 081953Z 28010KT 9SM SCT049 OVC065 M01/M07 A2984 RMK AO2 SNB17E48 SLP120 P0000 T10111067

10-Day Weather Forecast

Almanac

Astronomy

Dec. 08, 2016 Rise Set
Actual Time
Civil Twilight
Nautical Twilight
Astronomical Twilight
Moon
Length of Visible Light
Length of Day
Tomorrow will be .
, % of the Moon is Illuminated

Today's Extremes

State Highs State Lows

Community

WunderPhotos

Upload Photos

1,956,277 photos uploaded!

WunderBlog® & News

Nearby

Air Quality

  Air Quality AQ Index Pollutant
Not available.

Snow Depth

Station Depth Elevation

Earthquake Activity

City Distance Mag. Time & Date
Minimum magnitude displayed is 2.5.

Coastal Water Temperatures

Place Temperature

Stations

Nearby Weather Stations

Station Location Temp. Windchill Dew Point Humidity Wind Precip. Elev Updated Type
                   

Watches & Warnings

There are currently no watches in effect.